createdAt,value
2019-05-21T00:01:35.884Z,9.03
2019-05-21T00:04:05.716Z,11.25
2019-05-21T00:06:35.542Z,11.12
2019-05-21T00:09:06.006Z,10.58
2019-05-21T00:11:35.741Z,11.22
2019-05-21T00:14:05.530Z,10.28
2019-05-21T00:16:35.228Z,10.30
2019-05-21T00:19:05.997Z,9.33
2019-05-21T00:21:35.637Z,8.88
2019-05-21T00:24:06.293Z,9.50
2019-05-21T00:26:36.054Z,9.20
2019-05-21T00:29:41.717Z,8.70
2019-05-21T00:32:47.603Z,8.40
2019-05-21T00:35:53.633Z,7.00
2019-05-21T00:38:59.503Z,6.60
2019-05-21T00:42:06.328Z,6.55
2019-05-21T00:44:41.310Z,6.20
2019-05-21T00:47:12.840Z,6.72
2019-05-21T00:49:42.644Z,6.15
2019-05-21T00:52:12.432Z,6.72
2019-05-21T00:54:42.108Z,5.97
2019-05-21T00:57:11.991Z,6.37
2019-05-21T00:59:41.727Z,6.28
2019-05-21T01:02:11.572Z,6.87
2019-05-21T01:04:41.235Z,6.35
2019-05-21T01:07:10.934Z,7.23
2019-05-21T01:09:40.721Z,7.10
2019-05-21T01:12:10.515Z,6.78
2019-05-21T01:14:40.141Z,6.75
2019-05-21T01:17:09.852Z,7.15
2019-05-21T01:19:39.578Z,7.22
2019-05-21T01:22:09.274Z,6.70
2019-05-21T01:24:39.125Z,6.87
2019-05-21T01:27:08.785Z,7.33
2019-05-21T01:29:38.448Z,6.95
2019-05-21T01:32:08.113Z,6.75
2019-05-21T01:34:37.885Z,7.37
2019-05-21T01:37:07.546Z,6.90
2019-05-21T01:39:37.157Z,7.03
2019-05-21T01:42:06.809Z,7.50
2019-05-21T01:44:36.536Z,8.25
2019-05-21T01:47:06.288Z,7.35
2019-05-21T01:49:36.940Z,7.00
2019-05-21T01:52:06.592Z,7.85
2019-05-21T01:54:36.224Z,7.35
2019-05-21T01:57:05.876Z,7.60
2019-05-21T01:59:35.595Z,7.45
2019-05-21T02:02:05.398Z,7.72
2019-05-21T02:04:35.060Z,8.03
2019-05-21T02:07:04.888Z,7.75
2019-05-21T02:09:54.237Z,8.33
2019-05-21T02:12:23.858Z,7.47
2019-05-21T02:14:53.521Z,8.33
2019-05-21T02:17:23.229Z,8.15
2019-05-21T02:19:52.921Z,8.45
2019-05-21T02:22:22.566Z,8.23
2019-05-21T02:24:52.282Z,8.43
2019-05-21T02:27:22.868Z,9.05
2019-05-21T02:29:52.510Z,9.88
2019-05-21T02:32:22.122Z,8.70
2019-05-21T02:34:51.846Z,8.58
2019-05-21T02:37:21.585Z,8.05
2019-05-21T02:39:52.173Z,8.23
2019-05-21T02:42:22.764Z,7.97
2019-05-21T02:44:54.398Z,8.35
2019-05-21T02:47:23.933Z,7.97
2019-05-21T02:49:53.587Z,8.28
2019-05-21T02:52:23.307Z,8.03
2019-05-21T02:54:53.284Z,8.28
2019-05-21T02:57:25.041Z,8.63
2019-05-21T02:59:56.418Z,10.08
2019-05-21T03:02:34.596Z,8.45
2019-05-21T03:05:05.484Z,9.05
2019-05-21T03:07:35.379Z,8.65
2019-05-21T03:10:05.520Z,9.60
2019-05-21T03:12:35.249Z,9.03
2019-05-21T03:15:05.231Z,9.18
2019-05-21T03:17:35.022Z,10.20
2019-05-21T03:20:05.493Z,10.20
2019-05-21T03:22:35.218Z,10.08
2019-05-21T03:25:05.232Z,10.23
2019-05-21T03:27:35.052Z,10.03
2019-05-21T03:30:05.433Z,10.65
2019-05-21T03:32:35.138Z,9.88
2019-05-21T03:35:05.521Z,11.20
2019-05-21T03:37:35.302Z,10.80
2019-05-21T03:40:05.465Z,11.25
2019-05-21T03:42:35.100Z,11.50
2019-05-21T03:45:07.769Z,11.15
2019-05-21T03:47:38.881Z,11.70
2019-05-21T03:50:09.383Z,12.73
2019-05-21T03:52:39.016Z,11.73
2019-05-21T03:55:08.904Z,13.20
2019-05-21T03:57:38.569Z,13.32
2019-05-21T04:00:09.359Z,15.45
2019-05-21T04:02:39.239Z,14.25
2019-05-21T04:05:10.423Z,16.10
2019-05-21T04:07:40.123Z,17.92
2019-05-21T04:10:17.063Z,17.98
2019-05-21T04:13:05.959Z,17.45
2019-05-21T04:15:56.613Z,15.38
2019-05-21T04:18:35.341Z,16.48
2019-05-21T04:21:05.047Z,16.55
2019-05-21T04:23:34.739Z,16.35
2019-05-21T04:26:04.881Z,15.93
2019-05-21T04:28:34.558Z,15.75
2019-05-21T04:31:04.934Z,15.40
2019-05-21T04:33:34.717Z,15.38
2019-05-21T04:36:04.980Z,13.83
2019-05-21T04:38:34.677Z,13.85
2019-05-21T04:41:04.861Z,13.32
2019-05-21T04:43:35.544Z,12.13
2019-05-21T04:46:05.234Z,12.10
2019-05-21T04:48:34.897Z,10.95
2019-05-21T04:51:04.987Z,10.08
2019-05-21T04:53:34.676Z,9.03
2019-05-21T04:56:04.980Z,9.65
2019-05-21T04:58:34.621Z,8.80
2019-05-21T05:01:04.934Z,7.70
2019-05-21T05:03:34.567Z,8.13
2019-05-21T05:06:05.023Z,7.12
2019-05-21T05:08:34.710Z,8.25
2019-05-21T05:11:05.128Z,8.28
2019-05-21T05:13:34.968Z,7.92
2019-05-21T05:16:05.006Z,8.00
2019-05-21T05:18:34.681Z,8.38
2019-05-21T05:21:04.964Z,7.25
2019-05-21T05:23:34.613Z,8.03
2019-05-21T05:26:04.947Z,7.17
2019-05-21T05:28:34.620Z,7.25
2019-05-21T05:31:04.906Z,7.95
2019-05-21T05:33:34.636Z,8.05
2019-05-21T05:36:04.961Z,7.37
2019-05-21T05:38:34.839Z,7.65
2019-05-21T05:41:04.927Z,8.08
2019-05-21T05:43:34.745Z,7.90
2019-05-21T05:46:05.201Z,7.83
2019-05-21T05:48:39.256Z,8.23
2019-05-21T05:51:10.089Z,7.50
2019-05-21T05:53:58.422Z,8.03
2019-05-21T05:56:29.025Z,8.20
2019-05-21T05:58:59.979Z,8.58
2019-05-21T06:01:31.486Z,8.30
2019-05-21T06:04:03.382Z,8.35
2019-05-21T06:06:34.347Z,8.28
2019-05-21T06:09:06.039Z,8.58
2019-05-21T06:11:35.930Z,8.28
2019-05-21T06:14:05.797Z,8.25
2019-05-21T06:16:35.536Z,8.38
2019-05-21T06:19:05.351Z,8.60
2019-05-21T06:21:34.957Z,8.13
2019-05-21T06:24:05.225Z,7.50
2019-05-21T06:26:34.932Z,7.20
2019-05-21T06:29:05.178Z,7.50
2019-05-21T06:31:34.877Z,7.30
2019-05-21T06:34:05.354Z,6.70
2019-05-21T06:36:34.967Z,6.80
2019-05-21T06:39:06.667Z,6.20
2019-05-21T06:41:36.287Z,6.08
2019-05-21T06:44:06.039Z,6.03
2019-05-21T06:46:35.846Z,5.92
2019-05-21T06:49:05.544Z,6.25
2019-05-21T06:51:35.172Z,6.00
2019-05-21T06:54:05.096Z,5.10
2019-05-21T06:56:34.817Z,5.50
2019-05-21T06:59:05.018Z,5.37
2019-05-21T07:01:34.702Z,5.50
2019-05-21T07:04:05.104Z,5.17
2019-05-21T07:06:35.089Z,5.25
2019-05-21T07:09:06.632Z,5.10
2019-05-21T07:11:36.304Z,5.47
2019-05-21T07:14:06.078Z,5.03
2019-05-21T07:16:35.730Z,5.20
2019-05-21T07:19:05.357Z,4.45
2019-05-21T07:21:34.961Z,4.60
2019-05-21T07:24:04.944Z,4.83
2019-05-21T07:26:34.616Z,4.70
2019-05-21T07:29:05.394Z,4.80
2019-05-21T07:31:35.050Z,4.72
2019-05-21T07:34:05.013Z,4.62
2019-05-21T07:36:34.992Z,4.95
2019-05-21T07:39:06.946Z,4.80
2019-05-21T07:41:36.651Z,5.08
2019-05-21T07:44:06.341Z,5.55
2019-05-21T07:46:39.237Z,5.33
2019-05-21T07:49:07.498Z,4.95
2019-05-21T07:51:37.155Z,5.20
2019-05-21T07:54:07.747Z,5.10
2019-05-21T07:56:37.453Z,5.00
2019-05-21T07:59:07.190Z,4.62
2019-05-21T08:01:37.168Z,4.72
2019-05-21T08:04:06.952Z,4.95
2019-05-21T08:06:36.750Z,4.80
2019-05-21T08:09:13.332Z,5.58
2019-05-21T08:11:38.077Z,5.80
2019-05-21T08:14:07.716Z,5.33
2019-05-21T08:16:37.368Z,6.17
2019-05-21T08:19:07.065Z,5.78
2019-05-21T08:21:36.754Z,5.15
2019-05-21T08:24:06.449Z,6.03
2019-05-21T08:26:36.325Z,6.12
2019-05-21T08:29:06.442Z,5.67
2019-05-21T08:31:36.257Z,6.30
2019-05-21T08:34:05.927Z,6.40
2019-05-21T08:36:35.596Z,5.67
2019-05-21T08:39:07.011Z,6.30
2019-05-21T08:41:36.837Z,6.08
2019-05-21T08:44:06.529Z,5.92
2019-05-21T08:46:37.335Z,6.10
2019-05-21T08:49:07.058Z,6.12
2019-05-21T08:51:36.739Z,6.92
2019-05-21T08:54:06.501Z,6.78
2019-05-21T08:56:36.444Z,5.70
2019-05-21T08:59:06.286Z,6.45
2019-05-21T09:01:36.078Z,5.97
2019-05-21T09:04:05.959Z,5.97
2019-05-21T09:06:35.617Z,6.12
2019-05-21T09:09:06.011Z,6.22
2019-05-21T09:11:35.666Z,6.50
2019-05-21T09:14:05.529Z,6.28
2019-05-21T09:16:35.252Z,6.58
2019-05-21T09:19:05.015Z,6.03
2019-05-21T09:21:34.662Z,6.37
2019-05-21T09:24:05.026Z,5.97
2019-05-21T09:26:34.723Z,5.70
2019-05-21T09:29:04.944Z,6.30
2019-05-21T09:31:34.635Z,6.53
2019-05-21T09:34:04.964Z,7.12
2019-05-21T09:36:35.703Z,6.30
2019-05-21T09:39:06.436Z,6.33
2019-05-21T09:41:36.992Z,6.42
2019-05-21T09:44:06.676Z,6.67
2019-05-21T09:46:36.323Z,6.90
2019-05-21T09:49:06.026Z,6.92
2019-05-21T09:51:35.686Z,7.28
2019-05-21T09:54:05.486Z,7.87
2019-05-21T09:56:35.958Z,8.13
2019-05-21T09:59:20.049Z,7.87
2019-05-21T10:01:50.870Z,8.43
2019-05-21T10:04:20.603Z,9.75
2019-05-21T10:06:50.214Z,9.13
2019-05-21T10:09:20.285Z,10.80
2019-05-21T10:11:49.980Z,9.30
2019-05-21T10:14:19.758Z,10.98
2019-05-21T10:16:49.417Z,11.08
2019-05-21T10:19:19.137Z,10.50
2019-05-21T10:21:48.789Z,10.85
2019-05-21T10:24:18.491Z,11.90
2019-05-21T10:26:48.320Z,12.43
2019-05-21T10:29:19.142Z,12.25
2019-05-21T10:31:50.046Z,12.68
2019-05-21T10:34:20.839Z,13.15
2019-05-21T10:36:50.562Z,11.25
2019-05-21T10:39:20.211Z,11.80
2019-05-21T10:41:49.866Z,14.10
2019-05-21T10:44:19.708Z,12.75
2019-05-21T10:46:49.415Z,12.68
2019-05-21T10:49:19.072Z,13.08
2019-05-21T10:51:48.779Z,13.65
2019-05-21T10:54:18.535Z,13.98
2019-05-21T10:56:48.709Z,15.32
2019-05-21T10:59:18.539Z,15.53
2019-05-21T11:02:06.421Z,15.98
2019-05-21T11:04:55.268Z,15.75
2019-05-21T11:07:25.198Z,16.55
2019-05-21T11:09:55.144Z,16.48
2019-05-21T11:12:25.377Z,18.23
2019-05-21T11:14:55.073Z,17.62
2019-05-21T11:17:24.795Z,17.17
2019-05-21T11:19:54.447Z,17.55
2019-05-21T11:22:24.162Z,16.85
2019-05-21T11:24:53.781Z,19.27
2019-05-21T11:27:23.592Z,18.57
2019-05-21T11:29:53.429Z,18.87
2019-05-21T11:32:23.081Z,19.00
2019-05-21T11:34:53.205Z,19.35
2019-05-21T11:37:23.917Z,19.85
2019-05-21T11:39:53.574Z,18.35
2019-05-21T11:42:23.287Z,17.73
2019-05-21T11:44:52.905Z,18.67
2019-05-21T11:47:22.555Z,17.90
2019-05-21T11:49:52.271Z,19.60
2019-05-21T11:52:22.055Z,18.77
2019-05-21T11:54:51.685Z,19.30
2019-05-21T11:57:21.331Z,17.80
2019-05-21T11:59:51.121Z,18.52
2019-05-21T12:02:20.873Z,18.07
2019-05-21T12:04:50.534Z,19.55
2019-05-21T12:07:20.246Z,17.48
2019-05-21T12:09:49.971Z,16.82
2019-05-21T12:12:19.601Z,17.80
2019-05-21T12:14:49.350Z,17.37
2019-05-21T12:17:19.103Z,17.98
2019-05-21T12:19:48.756Z,17.05
2019-05-21T12:22:18.413Z,19.37
2019-05-21T12:24:48.102Z,17.30
2019-05-21T12:27:17.727Z,15.72
2019-05-21T12:29:47.342Z,16.85
2019-05-21T12:32:20.834Z,17.17
2019-05-21T12:34:50.541Z,17.70
2019-05-21T12:37:20.196Z,18.40
2019-05-21T12:39:49.934Z,18.52
2019-05-21T12:42:19.593Z,18.87
2019-05-21T12:44:49.278Z,19.50
2019-05-21T12:47:18.926Z,16.97
2019-05-21T12:49:48.567Z,19.35
2019-05-21T12:52:18.206Z,19.80
2019-05-21T12:54:48.130Z,21.70
2019-05-21T12:57:17.756Z,18.30
2019-05-21T12:59:47.402Z,17.07
2019-05-21T13:02:17.069Z,17.75
2019-05-21T13:04:46.835Z,16.60
2019-05-21T13:07:16.630Z,17.00
2019-05-21T13:09:46.316Z,17.55
2019-05-21T13:12:15.946Z,16.90
2019-05-21T13:14:45.699Z,17.37
2019-05-21T13:17:16.393Z,17.37
2019-05-21T13:19:46.010Z,16.80
2019-05-21T13:22:15.735Z,16.42
2019-05-21T13:24:45.439Z,15.98
2019-05-21T13:27:15.179Z,17.30
2019-05-21T13:29:45.017Z,17.65
2019-05-21T13:32:14.799Z,17.65
2019-05-21T13:34:44.434Z,18.98
2019-05-21T13:37:14.350Z,18.00
2019-05-21T13:39:49.829Z,20.17
2019-05-21T13:42:15.359Z,18.98
2019-05-21T13:44:45.076Z,18.00
2019-05-21T13:47:14.758Z,19.65
2019-05-21T13:49:44.530Z,17.73
2019-05-21T13:52:14.253Z,17.92
2019-05-21T13:54:43.923Z,17.35
2019-05-21T13:57:13.775Z,19.98
2019-05-21T13:59:43.558Z,34.50
2019-05-21T14:02:14.152Z,20.45
2019-05-21T14:04:43.911Z,19.90
2019-05-21T14:07:13.590Z,19.23
2019-05-21T14:09:43.398Z,17.87
2019-05-21T14:12:13.378Z,19.27
2019-05-21T14:14:43.045Z,19.50
2019-05-21T14:17:12.841Z,18.60
2019-05-21T14:19:42.865Z,19.80
2019-05-21T14:22:12.747Z,20.37
2019-05-21T14:24:42.653Z,21.15
2019-05-21T14:27:12.277Z,20.27
2019-05-21T14:29:41.990Z,19.85
2019-05-21T14:32:11.669Z,19.77
2019-05-21T14:34:41.369Z,18.82
2019-05-21T14:37:11.071Z,17.42
2019-05-21T14:39:40.731Z,18.60
2019-05-21T14:42:10.610Z,16.95
2019-05-21T14:44:40.260Z,19.35
2019-05-21T14:47:09.955Z,18.77
2019-05-21T14:49:39.605Z,20.02
2019-05-21T14:52:09.970Z,19.65
2019-05-21T14:54:39.630Z,18.87
2019-05-21T14:57:12.349Z,20.08
2019-05-21T14:59:42.831Z,20.62
2019-05-21T15:02:13.123Z,18.90
2019-05-21T15:04:43.039Z,18.10
2019-05-21T15:07:13.155Z,19.57
2019-05-21T15:09:42.850Z,19.17
2019-05-21T15:12:12.668Z,19.65
2019-05-21T15:14:42.352Z,18.55
2019-05-21T15:17:12.047Z,20.08
2019-05-21T15:19:43.312Z,20.82
2019-05-21T15:22:12.959Z,20.13
2019-05-21T15:24:43.358Z,19.60
2019-05-21T15:27:13.074Z,20.73
2019-05-21T15:29:42.718Z,19.82
2019-05-21T15:32:12.446Z,20.45
2019-05-21T15:34:42.070Z,18.50
2019-05-21T15:37:11.817Z,20.25
2019-05-21T15:39:41.494Z,21.57
2019-05-21T15:42:11.124Z,20.40
2019-05-21T15:44:40.785Z,20.60
2019-05-21T15:47:10.586Z,21.85
2019-05-21T15:49:40.288Z,21.12
2019-05-21T15:52:10.199Z,21.13
2019-05-21T15:54:39.878Z,22.13
2019-05-21T15:57:10.804Z,22.07
2019-05-21T15:59:40.751Z,22.10
2019-05-21T16:02:10.482Z,21.73
2019-05-21T16:04:40.653Z,21.30
2019-05-21T16:07:10.358Z,22.58
2019-05-21T16:09:40.029Z,23.30
2019-05-21T16:12:09.748Z,24.65
2019-05-21T16:14:39.474Z,22.62
2019-05-21T16:17:09.296Z,23.27
2019-05-21T16:19:39.927Z,22.95
2019-05-21T16:22:09.703Z,23.65
2019-05-21T16:24:39.360Z,24.52
2019-05-21T16:27:09.105Z,24.65
2019-05-21T16:29:38.787Z,23.42
2019-05-21T16:32:08.598Z,24.15
2019-05-21T16:34:38.346Z,24.12
2019-05-21T16:37:08.066Z,22.67
2019-05-21T16:39:37.725Z,23.75
2019-05-21T16:42:07.404Z,24.63
2019-05-21T16:44:37.231Z,23.90
2019-05-21T16:47:06.873Z,24.70
2019-05-21T16:49:36.662Z,21.62
2019-05-21T16:52:06.729Z,25.75
2019-05-21T16:54:36.361Z,25.43
2019-05-21T16:57:06.261Z,24.92
2019-05-21T16:59:35.928Z,25.48
2019-05-21T17:02:05.942Z,25.25
2019-05-21T17:04:35.594Z,25.88
2019-05-21T17:07:05.317Z,24.70
2019-05-21T17:09:35.438Z,24.52
2019-05-21T17:12:05.588Z,24.98
2019-05-21T17:14:35.230Z,25.35
2019-05-21T17:17:05.106Z,24.70
2019-05-21T17:19:34.774Z,25.90
2019-05-21T17:22:04.974Z,24.75
2019-05-21T17:24:34.697Z,25.15
2019-05-21T17:27:05.125Z,24.57
2019-05-21T17:29:35.792Z,27.37
2019-05-21T17:32:06.577Z,25.90
2019-05-21T17:34:36.624Z,25.55
2019-05-21T17:37:06.585Z,25.45
2019-05-21T17:39:37.486Z,26.45
2019-05-21T17:42:15.103Z,23.52
2019-05-21T17:44:38.889Z,25.52
2019-05-21T17:47:08.702Z,23.62
2019-05-21T17:49:38.442Z,23.32
2019-05-21T17:52:09.216Z,22.27
2019-05-21T17:54:54.046Z,26.30
2019-05-21T17:57:10.354Z,24.00
2019-05-21T17:59:40.156Z,24.55
2019-05-21T18:02:13.335Z,25.10
2019-05-21T18:04:43.636Z,25.77
2019-05-21T18:07:13.800Z,25.45
2019-05-21T18:09:43.531Z,24.95
2019-05-21T18:12:14.262Z,24.92
2019-05-21T18:14:44.335Z,26.00
2019-05-21T18:17:16.043Z,24.25
2019-05-21T18:19:46.734Z,23.92
2019-05-21T18:22:18.098Z,23.83
2019-05-21T18:24:48.922Z,24.63
2019-05-21T18:27:19.674Z,24.27
2019-05-21T18:29:50.433Z,25.25
2019-05-21T18:32:20.176Z,25.77
2019-05-21T18:34:49.868Z,28.17
2019-05-21T18:37:19.651Z,26.48
2019-05-21T18:39:49.426Z,25.80
2019-05-21T18:42:22.498Z,26.52
2019-05-21T18:44:52.527Z,26.50
2019-05-21T18:47:22.309Z,26.57
2019-05-21T18:49:52.097Z,27.15
2019-05-21T18:52:21.752Z,26.87
2019-05-21T18:54:51.502Z,27.87
2019-05-21T18:57:21.219Z,25.90
2019-05-21T18:59:51.049Z,25.60
2019-05-21T19:02:20.861Z,24.10
2019-05-21T19:04:51.609Z,23.60
2019-05-21T19:07:21.365Z,24.57
2019-05-21T19:09:51.193Z,23.20
2019-05-21T19:12:21.072Z,24.52
2019-05-21T19:14:50.855Z,24.45
2019-05-21T19:17:34.304Z,25.25
2019-05-21T19:19:52.187Z,23.52
2019-05-21T19:22:22.063Z,23.95
2019-05-21T19:24:51.841Z,24.25
2019-05-21T19:27:21.638Z,23.25
2019-05-21T19:29:51.333Z,25.12
2019-05-21T19:32:21.057Z,24.87
2019-05-21T19:34:50.910Z,24.82
2019-05-21T19:37:21.394Z,26.80
2019-05-21T19:39:51.349Z,25.75
2019-05-21T19:42:21.208Z,23.25
2019-05-21T19:44:51.031Z,26.75
2019-05-21T19:47:20.770Z,25.85
2019-05-21T19:49:50.494Z,23.77
2019-05-21T19:52:20.402Z,23.40
2019-05-21T19:54:50.164Z,24.23
2019-05-21T19:57:19.790Z,23.32
2019-05-21T19:59:49.732Z,22.17
2019-05-21T20:02:20.283Z,21.57
2019-05-21T20:04:50.912Z,22.87
2019-05-21T20:07:20.936Z,21.68
2019-05-21T20:09:51.622Z,20.77
2019-05-21T20:12:21.802Z,22.45
2019-05-21T20:14:51.456Z,19.27
2019-05-21T20:17:21.457Z,19.17
2019-05-21T20:19:52.462Z,17.40
2019-05-21T20:22:25.957Z,18.20
2019-05-21T20:24:54.086Z,18.80
2019-05-21T20:27:23.957Z,18.17
2019-05-21T20:29:53.623Z,17.17
2019-05-21T20:32:24.402Z,16.95
2019-05-21T20:34:54.258Z,18.17
2019-05-21T20:37:26.313Z,16.82
2019-05-21T20:39:58.033Z,17.02
2019-05-21T20:42:30.593Z,14.68
2019-05-21T20:45:00.361Z,14.70
2019-05-21T20:47:30.062Z,14.53
2019-05-21T20:49:59.816Z,14.90
2019-05-21T20:52:29.615Z,15.32
2019-05-21T20:54:59.296Z,14.83
2019-05-21T20:57:29.054Z,15.55
2019-05-21T21:00:00.018Z,14.47
2019-05-21T21:02:30.351Z,15.38
2019-05-21T21:05:00.794Z,13.40
2019-05-21T21:07:30.898Z,12.25
2019-05-21T21:10:00.672Z,12.85
2019-05-21T21:12:30.573Z,10.32
2019-05-21T21:15:00.454Z,9.68
2019-05-21T21:17:30.723Z,8.88
2019-05-21T21:20:00.569Z,8.70
2019-05-21T21:22:30.623Z,8.80
2019-05-21T21:25:00.692Z,8.33
2019-05-21T21:27:30.661Z,8.03
2019-05-21T21:30:00.480Z,6.90
2019-05-21T21:32:30.497Z,6.95
2019-05-21T21:35:00.464Z,6.28
2019-05-21T21:37:30.118Z,6.20
2019-05-21T21:40:00.223Z,5.70
2019-05-21T21:42:30.068Z,5.90
2019-05-21T21:44:59.832Z,4.78
2019-05-21T21:47:29.776Z,4.97
2019-05-21T21:50:01.081Z,3.92
2019-05-21T21:52:31.406Z,3.90
2019-05-21T21:55:02.522Z,3.77
2019-05-21T21:57:32.439Z,3.25
2019-05-21T22:00:04.198Z,3.20
2019-05-21T22:02:36.980Z,3.15
2019-05-21T22:05:08.960Z,3.30
2019-05-21T22:07:39.072Z,3.55
2019-05-21T22:10:09.420Z,3.40
2019-05-21T22:12:39.487Z,3.55
2019-05-21T22:15:10.559Z,3.17
2019-05-21T22:17:40.373Z,3.65
2019-05-21T22:20:13.560Z,3.10
2019-05-21T22:22:44.238Z,3.60
2019-05-21T22:25:14.744Z,3.80
2019-05-21T22:27:44.350Z,4.35
2019-05-21T22:30:14.596Z,4.10
2019-05-21T22:32:44.398Z,4.20
2019-05-21T22:35:14.129Z,5.37
2019-05-21T22:37:43.766Z,5.10
2019-05-21T22:40:14.319Z,4.80
2019-05-21T22:42:43.948Z,4.70
2019-05-21T22:45:13.712Z,5.58
2019-05-21T22:47:43.354Z,4.55
2019-05-21T22:50:13.721Z,4.22
2019-05-21T22:52:43.621Z,4.75
2019-05-21T22:55:13.423Z,4.50
2019-05-21T22:57:43.189Z,5.47
2019-05-21T23:00:13.364Z,5.25
2019-05-21T23:02:44.742Z,5.37
2019-05-21T23:05:14.617Z,6.10
2019-05-21T23:07:46.410Z,5.25
2019-05-21T23:10:17.842Z,5.72
2019-05-21T23:12:47.522Z,5.90
2019-05-21T23:15:24.863Z,5.37
2019-05-21T23:17:56.521Z,5.95
2019-05-21T23:20:30.065Z,4.95
2019-05-21T23:23:00.927Z,5.50
2019-05-21T23:25:32.209Z,5.33
2019-05-21T23:28:02.660Z,5.28
2019-05-21T23:30:33.791Z,5.47
2019-05-21T23:33:04.480Z,5.00
2019-05-21T23:35:34.747Z,4.95
2019-05-21T23:38:05.961Z,5.20
2019-05-21T23:40:36.539Z,5.20
2019-05-21T23:43:08.325Z,5.10
2019-05-21T23:45:38.026Z,5.05
2019-05-21T23:48:09.957Z,6.30
2019-05-21T23:50:39.719Z,5.12
2019-05-21T23:53:09.818Z,5.95
2019-05-21T23:55:40.252Z,5.25
2019-05-21T23:58:10.569Z,5.58
